sensor_id;sensor_type;location;lat;lon;timestamp;P1;durP1;ratioP1;P2;durP2;ratioP2
9749;SDS011;4914;43.218;27.908;2022-11-02T00:01:53;29.10;;;22.70;;
9749;SDS011;4914;43.218;27.908;2022-11-02T00:04:20;27.33;;;22.50;;
9749;SDS011;4914;43.218;27.908;2022-11-02T00:06:46;28.27;;;23.50;;
9749;SDS011;4914;43.218;27.908;2022-11-02T00:09:15;31.10;;;24.87;;
9749;SDS011;4914;43.218;27.908;2022-11-02T00:11:41;30.20;;;25.70;;
9749;SDS011;4914;43.218;27.908;2022-11-02T00:14:08;33.27;;;25.90;;
9749;SDS011;4914;43.218;27.908;2022-11-02T00:16:35;30.50;;;25.30;;
9749;SDS011;4914;43.218;27.908;2022-11-02T00:19:05;27.93;;;23.60;;
9749;SDS011;4914;43.218;27.908;2022-11-02T00:21:33;35.83;;;22.40;;
9749;SDS011;4914;43.218;27.908;2022-11-02T00:24:01;29.47;;;21.60;;
9749;SDS011;4914;43.218;27.908;2022-11-02T00:26:32;29.87;;;21.47;;
9749;SDS011;4914;43.218;27.908;2022-11-02T00:29:01;28.33;;;21.83;;
9749;SDS011;4914;43.218;27.908;2022-11-02T00:31:28;27.33;;;22.53;;
9749;SDS011;4914;43.218;27.908;2022-11-02T00:33:55;29.73;;;23.67;;
9749;SDS011;4914;43.218;27.908;2022-11-02T00:36:22;29.43;;;22.83;;
9749;SDS011;4914;43.218;27.908;2022-11-02T00:38:50;29.13;;;23.13;;
9749;SDS011;4914;43.218;27.908;2022-11-02T00:41:17;32.27;;;23.10;;
9749;SDS011;4914;43.218;27.908;2022-11-02T00:43:46;28.03;;;22.87;;
9749;SDS011;4914;43.218;27.908;2022-11-02T00:46:13;35.93;;;23.33;;
9749;SDS011;4914;43.218;27.908;2022-11-02T00:48:40;31.73;;;23.83;;
9749;SDS011;4914;43.218;27.908;2022-11-02T00:51:07;25.83;;;22.50;;
9749;SDS011;4914;43.218;27.908;2022-11-02T00:53:33;30.20;;;22.97;;
9749;SDS011;4914;43.218;27.908;2022-11-02T00:56:00;35.93;;;22.70;;
9749;SDS011;4914;43.218;27.908;2022-11-02T00:58:27;30.53;;;23.73;;
9749;SDS011;4914;43.218;27.908;2022-11-02T01:00:55;32.33;;;23.23;;
9749;SDS011;4914;43.218;27.908;2022-11-02T01:03:22;28.17;;;22.13;;
9749;SDS011;4914;43.218;27.908;2022-11-02T01:05:49;27.63;;;22.70;;
9749;SDS011;4914;43.218;27.908;2022-11-02T01:08:16;32.00;;;24.07;;
9749;SDS011;4914;43.218;27.908;2022-11-02T01:10:43;31.30;;;23.13;;
9749;SDS011;4914;43.218;27.908;2022-11-02T01:13:09;27.33;;;23.23;;
9749;SDS011;4914;43.218;27.908;2022-11-02T01:15:36;27.60;;;23.07;;
9749;SDS011;4914;43.218;27.908;2022-11-02T01:18:04;31.93;;;22.77;;
9749;SDS011;4914;43.218;27.908;2022-11-02T01:20:31;32.87;;;22.90;;
9749;SDS011;4914;43.218;27.908;2022-11-02T01:22:58;31.00;;;24.90;;
9749;SDS011;4914;43.218;27.908;2022-11-02T01:25:25;29.40;;;23.17;;
9749;SDS011;4914;43.218;27.908;2022-11-02T01:27:52;28.83;;;22.73;;
9749;SDS011;4914;43.218;27.908;2022-11-02T01:30:18;29.93;;;23.27;;
9749;SDS011;4914;43.218;27.908;2022-11-02T01:32:45;35.30;;;24.57;;
9749;SDS011;4914;43.218;27.908;2022-11-02T01:35:13;28.20;;;23.30;;
9749;SDS011;4914;43.218;27.908;2022-11-02T01:37:40;34.10;;;24.03;;
9749;SDS011;4914;43.218;27.908;2022-11-02T01:40:08;31.70;;;24.27;;
9749;SDS011;4914;43.218;27.908;2022-11-02T01:42:35;33.17;;;24.40;;
9749;SDS011;4914;43.218;27.908;2022-11-02T01:45:02;33.33;;;25.80;;
9749;SDS011;4914;43.218;27.908;2022-11-02T01:47:30;31.07;;;26.20;;
9749;SDS011;4914;43.218;27.908;2022-11-02T01:50:03;35.03;;;25.87;;
9749;SDS011;4914;43.218;27.908;2022-11-02T01:52:35;38.57;;;26.20;;
9749;SDS011;4914;43.218;27.908;2022-11-02T01:55:03;35.83;;;25.03;;
9749;SDS011;4914;43.218;27.908;2022-11-02T01:57:37;33.30;;;25.47;;
9749;SDS011;4914;43.218;27.908;2022-11-02T02:00:07;36.13;;;25.67;;
9749;SDS011;4914;43.218;27.908;2022-11-02T02:02:36;36.43;;;25.93;;
9749;SDS011;4914;43.218;27.908;2022-11-02T02:05:08;37.20;;;26.30;;
9749;SDS011;4914;43.218;27.908;2022-11-02T02:07:39;39.77;;;26.47;;
9749;SDS011;4914;43.218;27.908;2022-11-02T02:10:07;40.07;;;27.90;;
9749;SDS011;4914;43.218;27.908;2022-11-02T02:12:34;33.30;;;24.93;;
9749;SDS011;4914;43.218;27.908;2022-11-02T02:15:04;34.30;;;25.53;;
9749;SDS011;4914;43.218;27.908;2022-11-02T02:17:34;35.13;;;26.67;;
9749;SDS011;4914;43.218;27.908;2022-11-02T02:20:08;35.40;;;26.10;;
9749;SDS011;4914;43.218;27.908;2022-11-02T02:25:58;31.67;;;25.40;;
9749;SDS011;4914;43.218;27.908;2022-11-02T02:28:42;34.13;;;25.53;;
9749;SDS011;4914;43.218;27.908;2022-11-02T02:31:15;36.10;;;25.83;;
9749;SDS011;4914;43.218;27.908;2022-11-02T02:33:49;31.40;;;25.93;;
9749;SDS011;4914;43.218;27.908;2022-11-02T02:36:24;31.40;;;24.83;;
9749;SDS011;4914;43.218;27.908;2022-11-02T02:38:57;34.87;;;24.47;;
9749;SDS011;4914;43.218;27.908;2022-11-02T02:41:31;31.20;;;23.53;;
9749;SDS011;4914;43.218;27.908;2022-11-02T02:44:04;32.70;;;23.10;;
9749;SDS011;4914;43.218;27.908;2022-11-02T02:46:36;35.57;;;24.33;;
9749;SDS011;4914;43.218;27.908;2022-11-02T02:49:10;30.13;;;23.50;;
9749;SDS011;4914;43.218;27.908;2022-11-02T02:51:41;31.63;;;25.67;;
9749;SDS011;4914;43.218;27.908;2022-11-02T02:54:11;30.13;;;24.33;;
9749;SDS011;4914;43.218;27.908;2022-11-02T02:56:41;29.97;;;24.03;;
9749;SDS011;4914;43.218;27.908;2022-11-02T02:59:13;32.03;;;24.93;;
9749;SDS011;4914;43.218;27.908;2022-11-02T03:01:46;29.83;;;24.83;;
9749;SDS011;4914;43.218;27.908;2022-11-02T03:04:13;27.77;;;24.17;;
9749;SDS011;4914;43.218;27.908;2022-11-02T03:06:41;27.67;;;23.07;;
9749;SDS011;4914;43.218;27.908;2022-11-02T03:09:14;30.10;;;24.07;;
9749;SDS011;4914;43.218;27.908;2022-11-02T03:11:53;32.37;;;24.03;;
9749;SDS011;4914;43.218;27.908;2022-11-02T03:14:36;32.67;;;24.17;;
9749;SDS011;4914;43.218;27.908;2022-11-02T03:17:09;33.13;;;25.73;;
9749;SDS011;4914;43.218;27.908;2022-11-02T03:19:43;31.57;;;23.17;;
9749;SDS011;4914;43.218;27.908;2022-11-02T03:22:23;32.90;;;24.30;;
9749;SDS011;4914;43.218;27.908;2022-11-02T03:24:56;31.23;;;22.13;;
9749;SDS011;4914;43.218;27.908;2022-11-02T03:27:32;25.47;;;22.37;;
9749;SDS011;4914;43.218;27.908;2022-11-02T03:30:06;26.37;;;22.17;;
9749;SDS011;4914;43.218;27.908;2022-11-02T03:32:35;29.80;;;22.30;;
9749;SDS011;4914;43.218;27.908;2022-11-02T03:35:09;29.20;;;23.20;;
9749;SDS011;4914;43.218;27.908;2022-11-02T03:37:44;28.27;;;22.83;;
9749;SDS011;4914;43.218;27.908;2022-11-02T03:40:16;29.30;;;21.83;;
9749;SDS011;4914;43.218;27.908;2022-11-02T03:42:46;30.57;;;21.73;;
9749;SDS011;4914;43.218;27.908;2022-11-02T03:45:18;26.13;;;20.30;;
9749;SDS011;4914;43.218;27.908;2022-11-02T03:47:48;25.97;;;20.70;;
9749;SDS011;4914;43.218;27.908;2022-11-02T03:50:19;25.77;;;21.23;;
9749;SDS011;4914;43.218;27.908;2022-11-02T03:52:49;24.90;;;20.60;;
9749;SDS011;4914;43.218;27.908;2022-11-02T03:55:23;26.40;;;21.10;;
9749;SDS011;4914;43.218;27.908;2022-11-02T03:57:54;21.90;;;19.50;;
9749;SDS011;4914;43.218;27.908;2022-11-02T04:00:24;24.27;;;19.40;;
9749;SDS011;4914;43.218;27.908;2022-11-02T04:02:53;23.13;;;18.70;;
9749;SDS011;4914;43.218;27.908;2022-11-02T04:05:26;23.37;;;18.50;;
9749;SDS011;4914;43.218;27.908;2022-11-02T04:07:53;19.57;;;17.33;;
9749;SDS011;4914;43.218;27.908;2022-11-02T04:10:39;19.43;;;17.27;;
9749;SDS011;4914;43.218;27.908;2022-11-02T04:13:25;21.00;;;17.00;;
9749;SDS011;4914;43.218;27.908;2022-11-02T04:16:11;18.27;;;15.73;;
9749;SDS011;4914;43.218;27.908;2022-11-02T04:18:38;18.93;;;16.27;;
9749;SDS011;4914;43.218;27.908;2022-11-02T04:21:22;20.30;;;17.23;;
9749;SDS011;4914;43.218;27.908;2022-11-02T04:23:49;19.63;;;16.23;;
9749;SDS011;4914;43.218;27.908;2022-11-02T04:26:34;20.63;;;16.60;;
9749;SDS011;4914;43.218;27.908;2022-11-02T04:29:00;19.27;;;17.10;;
9749;SDS011;4914;43.218;27.908;2022-11-02T04:31:29;21.00;;;16.47;;
9749;SDS011;4914;43.218;27.908;2022-11-02T04:33:57;19.03;;;15.90;;
9749;SDS011;4914;43.218;27.908;2022-11-02T04:36:24;23.83;;;17.23;;
9749;SDS011;4914;43.218;27.908;2022-11-02T04:38:51;20.40;;;17.73;;
9749;SDS011;4914;43.218;27.908;2022-11-02T04:41:18;22.57;;;18.07;;
9749;SDS011;4914;43.218;27.908;2022-11-02T04:44:03;20.20;;;18.10;;
9749;SDS011;4914;43.218;27.908;2022-11-02T04:46:33;22.30;;;19.90;;
9749;SDS011;4914;43.218;27.908;2022-11-02T04:49:01;23.17;;;20.70;;
9749;SDS011;4914;43.218;27.908;2022-11-02T04:51:28;24.53;;;18.80;;
9749;SDS011;4914;43.218;27.908;2022-11-02T04:53:56;23.27;;;20.13;;
9749;SDS011;4914;43.218;27.908;2022-11-02T04:56:23;33.17;;;19.73;;
9749;SDS011;4914;43.218;27.908;2022-11-02T04:58:51;25.47;;;21.80;;
9749;SDS011;4914;43.218;27.908;2022-11-02T05:01:19;33.27;;;26.20;;
9749;SDS011;4914;43.218;27.908;2022-11-02T05:03:49;34.77;;;24.97;;
9749;SDS011;4914;43.218;27.908;2022-11-02T05:06:16;32.43;;;26.73;;
9749;SDS011;4914;43.218;27.908;2022-11-02T05:08:44;33.80;;;27.60;;
9749;SDS011;4914;43.218;27.908;2022-11-02T05:11:12;57.40;;;40.50;;
9749;SDS011;4914;43.218;27.908;2022-11-02T05:13:39;43.70;;;38.83;;
9749;SDS011;4914;43.218;27.908;2022-11-02T05:16:06;54.67;;;44.67;;
9749;SDS011;4914;43.218;27.908;2022-11-02T05:18:37;61.50;;;46.80;;
9749;SDS011;4914;43.218;27.908;2022-11-02T05:21:05;56.73;;;49.40;;
9749;SDS011;4914;43.218;27.908;2022-11-02T05:23:32;130.60;;;54.00;;
9749;SDS011;4914;43.218;27.908;2022-11-02T05:25:59;97.80;;;55.63;;
9749;SDS011;4914;43.218;27.908;2022-11-02T05:28:27;134.50;;;55.80;;
9749;SDS011;4914;43.218;27.908;2022-11-02T05:30:56;230.90;;;63.10;;
9749;SDS011;4914;43.218;27.908;2022-11-02T05:33:24;214.63;;;65.77;;
9749;SDS011;4914;43.218;27.908;2022-11-02T05:35:50;133.37;;;61.10;;
9749;SDS011;4914;43.218;27.908;2022-11-02T05:38:20;133.37;;;62.93;;
9749;SDS011;4914;43.218;27.908;2022-11-02T05:40:50;119.93;;;64.23;;
9749;SDS011;4914;43.218;27.908;2022-11-02T05:43:17;94.07;;;61.67;;
9749;SDS011;4914;43.218;27.908;2022-11-02T05:45:49;80.70;;;61.80;;
9749;SDS011;4914;43.218;27.908;2022-11-02T05:48:18;75.30;;;58.90;;
9749;SDS011;4914;43.218;27.908;2022-11-02T05:50:45;64.00;;;56.80;;
9749;SDS011;4914;43.218;27.908;2022-11-02T05:53:12;67.17;;;56.23;;
9749;SDS011;4914;43.218;27.908;2022-11-02T05:55:40;63.33;;;53.17;;
9749;SDS011;4914;43.218;27.908;2022-11-02T05:58:07;64.43;;;55.00;;
9749;SDS011;4914;43.218;27.908;2022-11-02T06:00:34;62.03;;;52.17;;
9749;SDS011;4914;43.218;27.908;2022-11-02T06:03:01;59.67;;;52.60;;
9749;SDS011;4914;43.218;27.908;2022-11-02T06:05:28;62.60;;;55.03;;
9749;SDS011;4914;43.218;27.908;2022-11-02T06:07:58;59.57;;;52.70;;
9749;SDS011;4914;43.218;27.908;2022-11-02T06:10:25;56.30;;;49.83;;
9749;SDS011;4914;43.218;27.908;2022-11-02T06:12:56;59.53;;;48.93;;
9749;SDS011;4914;43.218;27.908;2022-11-02T06:15:25;53.43;;;47.53;;
9749;SDS011;4914;43.218;27.908;2022-11-02T06:17:52;50.37;;;44.87;;
9749;SDS011;4914;43.218;27.908;2022-11-02T06:20:19;54.63;;;46.60;;
9749;SDS011;4914;43.218;27.908;2022-11-02T06:22:47;54.87;;;45.47;;
9749;SDS011;4914;43.218;27.908;2022-11-02T06:25:15;50.47;;;43.67;;
9749;SDS011;4914;43.218;27.908;2022-11-02T06:27:49;47.00;;;41.90;;
9749;SDS011;4914;43.218;27.908;2022-11-02T06:30:18;55.40;;;41.67;;
9749;SDS011;4914;43.218;27.908;2022-11-02T06:32:45;55.67;;;42.80;;
9749;SDS011;4914;43.218;27.908;2022-11-02T06:35:12;45.13;;;40.07;;
9749;SDS011;4914;43.218;27.908;2022-11-02T06:37:39;47.03;;;39.73;;
9749;SDS011;4914;43.218;27.908;2022-11-02T06:40:07;48.80;;;40.87;;
9749;SDS011;4914;43.218;27.908;2022-11-02T06:42:34;44.30;;;39.63;;
9749;SDS011;4914;43.218;27.908;2022-11-02T06:45:01;50.20;;;40.30;;
9749;SDS011;4914;43.218;27.908;2022-11-02T06:47:30;45.20;;;39.37;;
9749;SDS011;4914;43.218;27.908;2022-11-02T06:49:58;71.47;;;39.10;;
9749;SDS011;4914;43.218;27.908;2022-11-02T06:52:25;47.27;;;39.70;;
9749;SDS011;4914;43.218;27.908;2022-11-02T06:54:52;62.53;;;40.73;;
9749;SDS011;4914;43.218;27.908;2022-11-02T06:57:19;53.43;;;38.00;;
9749;SDS011;4914;43.218;27.908;2022-11-02T06:59:47;59.33;;;37.97;;
9749;SDS011;4914;43.218;27.908;2022-11-02T07:02:14;56.67;;;36.93;;
9749;SDS011;4914;43.218;27.908;2022-11-02T07:04:42;50.92;;;37.30;;
9749;SDS011;4914;43.218;27.908;2022-11-02T07:07:09;46.97;;;35.40;;
9749;SDS011;4914;43.218;27.908;2022-11-02T07:09:36;51.30;;;35.17;;
9749;SDS011;4914;43.218;27.908;2022-11-02T07:12:04;41.95;;;33.85;;
9749;SDS011;4914;43.218;27.908;2022-11-02T07:14:31;49.85;;;34.53;;
9749;SDS011;4914;43.218;27.908;2022-11-02T07:16:58;50.50;;;36.10;;
9749;SDS011;4914;43.218;27.908;2022-11-02T07:19:27;49.58;;;35.95;;
9749;SDS011;4914;43.218;27.908;2022-11-02T07:21:55;46.20;;;34.55;;
9749;SDS011;4914;43.218;27.908;2022-11-02T07:24:22;49.80;;;37.22;;
9749;SDS011;4914;43.218;27.908;2022-11-02T07:26:49;50.28;;;35.25;;
9749;SDS011;4914;43.218;27.908;2022-11-02T07:29:16;40.45;;;32.10;;
9749;SDS011;4914;43.218;27.908;2022-11-02T07:31:43;47.13;;;32.70;;
9749;SDS011;4914;43.218;27.908;2022-11-02T07:34:11;43.00;;;31.92;;
9749;SDS011;4914;43.218;27.908;2022-11-02T07:36:38;40.03;;;29.70;;
9749;SDS011;4914;43.218;27.908;2022-11-02T07:39:07;40.20;;;30.25;;
9749;SDS011;4914;43.218;27.908;2022-11-02T07:41:34;36.65;;;30.63;;
9749;SDS011;4914;43.218;27.908;2022-11-02T07:44:01;50.30;;;32.95;;
9749;SDS011;4914;43.218;27.908;2022-11-02T07:46:28;49.55;;;31.77;;
9749;SDS011;4914;43.218;27.908;2022-11-02T07:48:54;43.05;;;30.88;;
9749;SDS011;4914;43.218;27.908;2022-11-02T07:51:22;43.42;;;31.30;;
9749;SDS011;4914;43.218;27.908;2022-11-02T07:53:49;49.97;;;36.80;;
9749;SDS011;4914;43.218;27.908;2022-11-02T07:56:17;49.25;;;34.58;;
9749;SDS011;4914;43.218;27.908;2022-11-02T07:58:44;50.28;;;36.22;;
9749;SDS011;4914;43.218;27.908;2022-11-02T08:01:29;62.30;;;35.13;;
9749;SDS011;4914;43.218;27.908;2022-11-02T08:03:55;46.58;;;33.58;;
9749;SDS011;4914;43.218;27.908;2022-11-02T08:06:23;42.20;;;29.92;;
9749;SDS011;4914;43.218;27.908;2022-11-02T08:08:50;45.65;;;28.70;;
9749;SDS011;4914;43.218;27.908;2022-11-02T08:11:18;33.22;;;25.65;;
9749;SDS011;4914;43.218;27.908;2022-11-02T08:13:45;30.80;;;22.70;;
9749;SDS011;4914;43.218;27.908;2022-11-02T08:16:12;33.50;;;21.48;;
9749;SDS011;4914;43.218;27.908;2022-11-02T08:18:40;44.17;;;20.80;;
9749;SDS011;4914;43.218;27.908;2022-11-02T08:21:06;47.75;;;20.33;;
9749;SDS011;4914;43.218;27.908;2022-11-02T08:23:33;36.88;;;19.80;;
9749;SDS011;4914;43.218;27.908;2022-11-02T08:26:00;33.28;;;19.05;;
9749;SDS011;4914;43.218;27.908;2022-11-02T08:28:29;24.48;;;16.85;;
9749;SDS011;4914;43.218;27.908;2022-11-02T08:31:00;22.95;;;17.00;;
9749;SDS011;4914;43.218;27.908;2022-11-02T08:33:26;20.35;;;16.15;;
9749;SDS011;4914;43.218;27.908;2022-11-02T08:35:53;26.13;;;15.40;;
9749;SDS011;4914;43.218;27.908;2022-11-02T08:38:26;21.10;;;13.40;;
9749;SDS011;4914;43.218;27.908;2022-11-02T08:40:53;21.05;;;13.55;;
9749;SDS011;4914;43.218;27.908;2022-11-02T08:43:20;20.67;;;14.30;;
9749;SDS011;4914;43.218;27.908;2022-11-02T08:45:48;20.38;;;14.30;;
9749;SDS011;4914;43.218;27.908;2022-11-02T08:48:15;22.88;;;14.27;;
9749;SDS011;4914;43.218;27.908;2022-11-02T08:50:42;26.13;;;14.95;;
9749;SDS011;4914;43.218;27.908;2022-11-02T08:53:09;23.58;;;14.13;;
9749;SDS011;4914;43.218;27.908;2022-11-02T08:55:36;24.02;;;13.25;;
9749;SDS011;4914;43.218;27.908;2022-11-02T08:58:03;18.70;;;13.68;;
9749;SDS011;4914;43.218;27.908;2022-11-02T09:00:30;23.52;;;14.68;;
9749;SDS011;4914;43.218;27.908;2022-11-02T09:03:00;20.60;;;14.88;;
9749;SDS011;4914;43.218;27.908;2022-11-02T09:05:29;24.23;;;14.50;;
9749;SDS011;4914;43.218;27.908;2022-11-02T09:07:57;18.80;;;14.73;;
9749;SDS011;4914;43.218;27.908;2022-11-02T09:10:25;20.95;;;15.13;;
9749;SDS011;4914;43.218;27.908;2022-11-02T09:12:53;22.77;;;14.80;;
9749;SDS011;4914;43.218;27.908;2022-11-02T09:15:20;19.45;;;15.27;;
9749;SDS011;4914;43.218;27.908;2022-11-02T09:17:47;25.50;;;15.02;;
9749;SDS011;4914;43.218;27.908;2022-11-02T09:20:16;27.95;;;15.65;;
9749;SDS011;4914;43.218;27.908;2022-11-02T09:22:44;27.95;;;15.98;;
9749;SDS011;4914;43.218;27.908;2022-11-02T09:25:12;27.45;;;15.70;;
9749;SDS011;4914;43.218;27.908;2022-11-02T09:27:40;24.27;;;14.98;;
9749;SDS011;4914;43.218;27.908;2022-11-02T09:30:07;20.90;;;14.80;;
9749;SDS011;4914;43.218;27.908;2022-11-02T09:32:36;24.77;;;14.57;;
9749;SDS011;4914;43.218;27.908;2022-11-02T09:35:04;23.30;;;14.25;;
9749;SDS011;4914;43.218;27.908;2022-11-02T09:37:34;24.38;;;14.48;;
9749;SDS011;4914;43.218;27.908;2022-11-02T09:40:01;26.02;;;14.20;;
9749;SDS011;4914;43.218;27.908;2022-11-02T09:42:30;24.67;;;13.40;;
9749;SDS011;4914;43.218;27.908;2022-11-02T09:45:04;26.35;;;15.25;;
9749;SDS011;4914;43.218;27.908;2022-11-02T09:47:35;20.90;;;14.40;;
9749;SDS011;4914;43.218;27.908;2022-11-02T09:50:11;26.10;;;14.35;;
9749;SDS011;4914;43.218;27.908;2022-11-02T09:52:43;23.42;;;13.73;;
9749;SDS011;4914;43.218;27.908;2022-11-02T09:55:16;24.45;;;13.98;;
9749;SDS011;4914;43.218;27.908;2022-11-02T09:57:47;26.45;;;12.60;;
9749;SDS011;4914;43.218;27.908;2022-11-02T10:00:20;22.73;;;12.93;;
9749;SDS011;4914;43.218;27.908;2022-11-02T10:02:49;25.67;;;12.25;;
9749;SDS011;4914;43.218;27.908;2022-11-02T10:05:26;22.70;;;12.18;;
9749;SDS011;4914;43.218;27.908;2022-11-02T10:08:07;20.10;;;11.68;;
9749;SDS011;4914;43.218;27.908;2022-11-02T10:10:45;18.48;;;11.85;;
9749;SDS011;4914;43.218;27.908;2022-11-02T10:13:27;27.17;;;12.05;;
9749;SDS011;4914;43.218;27.908;2022-11-02T10:16:04;20.50;;;11.30;;
9749;SDS011;4914;43.218;27.908;2022-11-02T10:18:35;24.27;;;11.10;;
9749;SDS011;4914;43.218;27.908;2022-11-02T10:21:05;21.08;;;10.73;;
9749;SDS011;4914;43.218;27.908;2022-11-02T10:23:37;22.88;;;11.00;;
9749;SDS011;4914;43.218;27.908;2022-11-02T10:26:07;22.60;;;10.57;;
9749;SDS011;4914;43.218;27.908;2022-11-02T10:28:44;18.75;;;10.98;;
9749;SDS011;4914;43.218;27.908;2022-11-02T10:31:17;26.02;;;10.80;;
9749;SDS011;4914;43.218;27.908;2022-11-02T10:33:49;30.23;;;11.57;;
9749;SDS011;4914;43.218;27.908;2022-11-02T10:36:21;23.38;;;10.15;;
9749;SDS011;4914;43.218;27.908;2022-11-02T10:39:00;23.80;;;10.27;;
9749;SDS011;4914;43.218;27.908;2022-11-02T10:41:38;18.00;;;10.32;;
9749;SDS011;4914;43.218;27.908;2022-11-02T10:44:23;19.65;;;10.18;;
9749;SDS011;4914;43.218;27.908;2022-11-02T10:47:02;21.73;;;9.57;;
9749;SDS011;4914;43.218;27.908;2022-11-02T10:52:38;23.50;;;8.90;;
9749;SDS011;4914;43.218;27.908;2022-11-02T10:55:12;23.08;;;9.38;;
9749;SDS011;4914;43.218;27.908;2022-11-02T10:57:46;21.58;;;9.05;;
9749;SDS011;4914;43.218;27.908;2022-11-02T11:00:24;23.95;;;9.45;;
9749;SDS011;4914;43.218;27.908;2022-11-02T11:03:05;22.95;;;9.88;;
9749;SDS011;4914;43.218;27.908;2022-11-02T11:05:35;23.13;;;9.40;;
9749;SDS011;4914;43.218;27.908;2022-11-02T11:08:04;25.75;;;9.90;;
9749;SDS011;4914;43.218;27.908;2022-11-02T11:10:35;26.65;;;9.43;;
9749;SDS011;4914;43.218;27.908;2022-11-02T11:13:04;20.58;;;9.32;;
9749;SDS011;4914;43.218;27.908;2022-11-02T11:15:32;20.52;;;9.93;;
9749;SDS011;4914;43.218;27.908;2022-11-02T11:18:08;15.57;;;9.50;;
9749;SDS011;4914;43.218;27.908;2022-11-02T11:20:38;28.45;;;9.40;;
9749;SDS011;4914;43.218;27.908;2022-11-02T11:23:08;18.73;;;10.52;;
9749;SDS011;4914;43.218;27.908;2022-11-02T11:25:54;21.05;;;10.65;;
9749;SDS011;4914;43.218;27.908;2022-11-02T11:28:24;29.10;;;10.60;;
9749;SDS011;4914;43.218;27.908;2022-11-02T11:31:11;22.98;;;9.85;;
9749;SDS011;4914;43.218;27.908;2022-11-02T11:33:45;23.73;;;8.90;;
9749;SDS011;4914;43.218;27.908;2022-11-02T11:36:23;17.52;;;8.63;;
9749;SDS011;4914;43.218;27.908;2022-11-02T11:38:54;24.42;;;9.82;;
9749;SDS011;4914;43.218;27.908;2022-11-02T11:41:25;28.80;;;9.70;;
9749;SDS011;4914;43.218;27.908;2022-11-02T11:43:53;26.58;;;9.93;;
9749;SDS011;4914;43.218;27.908;2022-11-02T11:46:20;24.23;;;9.50;;
9749;SDS011;4914;43.218;27.908;2022-11-02T11:48:48;18.40;;;9.20;;
9749;SDS011;4914;43.218;27.908;2022-11-02T11:51:30;21.88;;;9.07;;
9749;SDS011;4914;43.218;27.908;2022-11-02T11:54:06;23.70;;;9.65;;
9749;SDS011;4914;43.218;27.908;2022-11-02T11:56:44;18.02;;;9.48;;
9749;SDS011;4914;43.218;27.908;2022-11-02T11:59:19;26.17;;;9.35;;
9749;SDS011;4914;43.218;27.908;2022-11-02T12:01:48;25.77;;;9.25;;
9749;SDS011;4914;43.218;27.908;2022-11-02T12:04:28;19.08;;;9.00;;
9749;SDS011;4914;43.218;27.908;2022-11-02T12:07:13;17.65;;;8.10;;
9749;SDS011;4914;43.218;27.908;2022-11-02T12:09:58;22.95;;;8.27;;
9749;SDS011;4914;43.218;27.908;2022-11-02T12:12:35;22.58;;;8.48;;
9749;SDS011;4914;43.218;27.908;2022-11-02T12:15:32;22.55;;;8.93;;
9749;SDS011;4914;43.218;27.908;2022-11-02T12:18:12;21.13;;;9.68;;
9749;SDS011;4914;43.218;27.908;2022-11-02T12:21:03;20.45;;;8.88;;
9749;SDS011;4914;43.218;27.908;2022-11-02T12:23:42;37.10;;;9.55;;
9749;SDS011;4914;43.218;27.908;2022-11-02T12:26:28;24.05;;;8.90;;
9749;SDS011;4914;43.218;27.908;2022-11-02T12:29:10;28.20;;;9.27;;
9749;SDS011;4914;43.218;27.908;2022-11-02T12:31:48;22.42;;;9.25;;
9749;SDS011;4914;43.218;27.908;2022-11-02T12:34:33;21.05;;;8.52;;
9749;SDS011;4914;43.218;27.908;2022-11-02T12:37:19;12.88;;;8.75;;
9749;SDS011;4914;43.218;27.908;2022-11-02T12:39:56;18.75;;;8.95;;
9749;SDS011;4914;43.218;27.908;2022-11-02T12:42:39;22.45;;;9.85;;
9749;SDS011;4914;43.218;27.908;2022-11-02T12:45:19;18.13;;;10.10;;
9749;SDS011;4914;43.218;27.908;2022-11-02T12:47:54;26.25;;;9.55;;
9749;SDS011;4914;43.218;27.908;2022-11-02T12:50:26;15.90;;;9.40;;
9749;SDS011;4914;43.218;27.908;2022-11-02T12:53:02;17.85;;;8.55;;
9749;SDS011;4914;43.218;27.908;2022-11-02T12:55:49;23.20;;;9.05;;
9749;SDS011;4914;43.218;27.908;2022-11-02T12:58:20;24.88;;;9.90;;
9749;SDS011;4914;43.218;27.908;2022-11-02T13:00:50;23.73;;;9.30;;
9749;SDS011;4914;43.218;27.908;2022-11-02T13:03:25;25.27;;;10.02;;
9749;SDS011;4914;43.218;27.908;2022-11-02T13:06:01;21.63;;;11.15;;
9749;SDS011;4914;43.218;27.908;2022-11-02T13:08:33;23.58;;;9.85;;
9749;SDS011;4914;43.218;27.908;2022-11-02T13:11:06;26.50;;;9.45;;
9749;SDS011;4914;43.218;27.908;2022-11-02T13:13:41;18.13;;;8.77;;
9749;SDS011;4914;43.218;27.908;2022-11-02T13:16:12;25.10;;;9.48;;
9749;SDS011;4914;43.218;27.908;2022-11-02T13:18:43;18.92;;;9.43;;
9749;SDS011;4914;43.218;27.908;2022-11-02T13:21:13;17.00;;;9.18;;
9749;SDS011;4914;43.218;27.908;2022-11-02T13:23:46;14.80;;;8.93;;
9749;SDS011;4914;43.218;27.908;2022-11-02T13:26:19;23.88;;;8.95;;
9749;SDS011;4914;43.218;27.908;2022-11-02T13:28:55;20.15;;;8.77;;
9749;SDS011;4914;43.218;27.908;2022-11-02T13:31:28;23.13;;;8.60;;
9749;SDS011;4914;43.218;27.908;2022-11-02T13:34:01;17.55;;;8.48;;
9749;SDS011;4914;43.218;27.908;2022-11-02T13:36:33;17.52;;;8.75;;
9749;SDS011;4914;43.218;27.908;2022-11-02T13:39:02;15.57;;;8.10;;
9749;SDS011;4914;43.218;27.908;2022-11-02T13:41:46;19.67;;;10.18;;
9749;SDS011;4914;43.218;27.908;2022-11-02T13:44:33;20.17;;;10.90;;
9749;SDS011;4914;43.218;27.908;2022-11-02T13:47:22;21.17;;;10.73;;
9749;SDS011;4914;43.218;27.908;2022-11-02T13:50:02;19.73;;;10.45;;
9749;SDS011;4914;43.218;27.908;2022-11-02T13:52:34;22.17;;;11.15;;
9749;SDS011;4914;43.218;27.908;2022-11-02T13:55:04;24.63;;;11.20;;
9749;SDS011;4914;43.218;27.908;2022-11-02T13:57:34;22.65;;;11.38;;
9749;SDS011;4914;43.218;27.908;2022-11-02T14:00:05;21.33;;;11.52;;
9749;SDS011;4914;43.218;27.908;2022-11-02T14:02:53;17.98;;;11.02;;
9749;SDS011;4914;43.218;27.908;2022-11-02T14:05:25;19.25;;;11.35;;
9749;SDS011;4914;43.218;27.908;2022-11-02T14:07:58;22.27;;;11.85;;
9749;SDS011;4914;43.218;27.908;2022-11-02T14:10:26;20.20;;;11.80;;
9749;SDS011;4914;43.218;27.908;2022-11-02T14:12:56;21.70;;;11.57;;
9749;SDS011;4914;43.218;27.908;2022-11-02T14:18:11;21.88;;;11.85;;
9749;SDS011;4914;43.218;27.908;2022-11-02T14:20:41;19.35;;;11.32;;
9749;SDS011;4914;43.218;27.908;2022-11-02T14:23:29;23.10;;;11.60;;
9749;SDS011;4914;43.218;27.908;2022-11-02T14:26:00;19.33;;;11.88;;
9749;SDS011;4914;43.218;27.908;2022-11-02T14:28:31;24.02;;;11.52;;
9749;SDS011;4914;43.218;27.908;2022-11-02T14:31:21;20.77;;;11.60;;
9749;SDS011;4914;43.218;27.908;2022-11-02T14:34:04;29.70;;;11.23;;
9749;SDS011;4914;43.218;27.908;2022-11-02T14:36:45;18.35;;;11.82;;
9749;SDS011;4914;43.218;27.908;2022-11-02T14:39:22;30.08;;;12.02;;
9749;SDS011;4914;43.218;27.908;2022-11-02T14:42:02;21.90;;;12.18;;
9749;SDS011;4914;43.218;27.908;2022-11-02T14:44:59;28.65;;;12.27;;
9749;SDS011;4914;43.218;27.908;2022-11-02T14:47:44;25.75;;;12.00;;
9749;SDS011;4914;43.218;27.908;2022-11-02T14:50:14;28.65;;;12.95;;
9749;SDS011;4914;43.218;27.908;2022-11-02T14:52:52;40.50;;;13.55;;
9749;SDS011;4914;43.218;27.908;2022-11-02T14:55:24;26.35;;;13.20;;
9749;SDS011;4914;43.218;27.908;2022-11-02T14:57:54;25.25;;;13.32;;
9749;SDS011;4914;43.218;27.908;2022-11-02T15:00:25;19.35;;;13.07;;
9749;SDS011;4914;43.218;27.908;2022-11-02T15:02:57;20.48;;;13.07;;
9749;SDS011;4914;43.218;27.908;2022-11-02T15:05:27;27.73;;;14.15;;
9749;SDS011;4914;43.218;27.908;2022-11-02T15:07:59;23.13;;;14.25;;
9749;SDS011;4914;43.218;27.908;2022-11-02T15:10:39;22.95;;;13.60;;